createdAt,value
2019-01-19T00:01:39.761Z,0.40
2019-01-19T00:04:19.929Z,0.30
2019-01-19T00:07:00.620Z,0.40
2019-01-19T00:09:35.033Z,0.30
2019-01-19T00:12:21.244Z,0.30
2019-01-19T00:14:49.957Z,0.30
2019-01-19T00:17:35.189Z,0.30
2019-01-19T00:20:15.208Z,0.30
2019-01-19T00:23:05.736Z,0.20
2019-01-19T00:25:46.173Z,0.30
2019-01-19T00:28:29.824Z,0.30
2019-01-19T00:31:16.458Z,0.30
2019-01-19T00:34:13.557Z,0.20
2019-01-19T00:36:47.893Z,0.30
2019-01-19T00:39:28.199Z,0.30
2019-01-19T00:42:08.408Z,0.20
2019-01-19T00:44:42.559Z,0.20
2019-01-19T00:47:16.837Z,0.20
2019-01-19T00:49:48.393Z,0.20
2019-01-19T00:52:28.427Z,0.20
2019-01-19T00:55:14.633Z,0.20
2019-01-19T00:57:51.908Z,0.20
2019-01-19T01:00:32.085Z,0.20
2019-01-19T01:03:06.496Z,0.20
2019-01-19T01:05:38.027Z,0.20
2019-01-19T01:08:15.546Z,0.20
2019-01-19T01:10:47.111Z,0.20
2019-01-19T01:13:18.701Z,0.20
2019-01-19T01:15:52.776Z,0.10
2019-01-19T01:18:43.718Z,0.10
2019-01-19T01:21:33.241Z,0.10
2019-01-19T01:24:10.508Z,0.10
2019-01-19T01:26:56.776Z,0.10
2019-01-19T01:29:58.106Z,0.10
2019-01-19T01:32:32.556Z,0.10
2019-01-19T01:35:32.831Z,0.10
2019-01-19T01:38:14.317Z,0.00
2019-01-19T01:41:08.133Z,0.00
2019-01-19T01:44:01.710Z,0.00
2019-01-19T01:46:39.156Z,0.00
2019-01-19T01:49:16.617Z,0.00
2019-01-19T01:52:00.082Z,0.00
2019-01-19T01:54:31.593Z,-0.10
2019-01-19T01:57:03.757Z,-0.10
2019-01-19T01:59:50.165Z,0.00
2019-01-19T02:02:36.620Z,-0.10
2019-01-19T02:05:09.518Z,-0.10
2019-01-19T02:07:46.762Z,-0.10
2019-01-19T02:10:34.550Z,-0.10
2019-01-19T02:13:30.017Z,-0.10
2019-01-19T02:16:19.276Z,-0.20
2019-01-19T02:19:14.512Z,-0.10
2019-01-19T02:21:54.402Z,-0.20
2019-01-19T02:24:28.556Z,-0.20
2019-01-19T02:27:18.045Z,-0.20
2019-01-19T02:29:52.209Z,-0.20
2019-01-19T02:32:41.602Z,-0.20
2019-01-19T02:35:31.754Z,-0.20
2019-01-19T02:38:26.628Z,-0.30
2019-01-19T02:41:12.146Z,-0.30
2019-01-19T02:44:12.800Z,-0.30
2019-01-19T02:47:01.912Z,-0.30
2019-01-19T02:49:51.871Z,-0.30
2019-01-19T02:52:26.033Z,-0.30
2019-01-19T02:55:09.458Z,-0.40
2019-01-19T02:57:43.831Z,-0.40
2019-01-19T03:00:33.269Z,-0.40
2019-01-19T03:03:16.652Z,-0.40
2019-01-19T03:05:56.299Z,-0.40
2019-01-19T03:08:45.205Z,-0.50
2019-01-19T03:11:38.556Z,-0.50
2019-01-19T03:14:10.095Z,-0.50
2019-01-19T03:16:58.449Z,-0.50
2019-01-19T03:19:39.510Z,-0.50
2019-01-19T03:22:23.035Z,-0.50
2019-01-19T03:25:08.245Z,-0.60
2019-01-19T03:27:48.666Z,-0.60
2019-01-19T03:30:36.442Z,-0.60
2019-01-19T03:33:23.051Z,-0.60
2019-01-19T03:36:04.383Z,-0.60
2019-01-19T03:38:34.697Z,-0.60
2019-01-19T03:41:21.424Z,-0.60
2019-01-19T03:44:19.773Z,-0.70
2019-01-19T03:47:24.241Z,-0.70
2019-01-19T03:50:13.827Z,-0.70
2019-01-19T03:52:51.019Z,-0.70
2019-01-19T03:55:51.951Z,-0.70
2019-01-19T03:58:34.880Z,-0.70
2019-01-19T04:01:30.573Z,-0.70
2019-01-19T04:04:10.453Z,-0.70
2019-01-19T04:06:42.017Z,-0.80
2019-01-19T04:09:25.218Z,-0.80
2019-01-19T04:12:08.592Z,-0.80
2019-01-19T04:14:42.657Z,-0.80
2019-01-19T04:17:36.781Z,-0.80
2019-01-19T04:20:26.540Z,-0.80
2019-01-19T04:22:56.854Z,-0.90
2019-01-19T04:25:31.264Z,-0.80
2019-01-19T04:28:01.398Z,-0.90
2019-01-19T04:30:29.872Z,-0.90
2019-01-19T04:32:58.331Z,-0.90
2019-01-19T04:35:26.850Z,-0.90
2019-01-19T04:37:55.365Z,-0.90
2019-01-19T04:40:23.889Z,-0.90
2019-01-19T04:42:52.557Z,-0.90
2019-01-19T04:45:21.017Z,-0.90
2019-01-19T04:47:49.525Z,-0.90
2019-01-19T04:50:17.981Z,-0.90
2019-01-19T04:52:46.475Z,-0.90
2019-01-19T04:55:14.958Z,-0.90
2019-01-19T04:57:43.438Z,-0.90
2019-01-19T05:00:14.910Z,-0.90
2019-01-19T05:02:43.372Z,-1.00
2019-01-19T05:05:11.839Z,-1.00
2019-01-19T05:07:40.335Z,-0.90
2019-01-19T05:10:11.528Z,-1.00
2019-01-19T05:12:40.010Z,-1.00
2019-01-19T05:15:11.380Z,-1.00
2019-01-19T05:17:39.928Z,-1.00
2019-01-19T05:20:11.467Z,-1.00
2019-01-19T05:22:40.061Z,-1.00
2019-01-19T05:25:11.143Z,-1.00
2019-01-19T05:27:39.640Z,-1.00
2019-01-19T05:30:13.461Z,-1.00
2019-01-19T05:32:41.928Z,-1.10
2019-01-19T05:35:10.503Z,-1.10
2019-01-19T05:37:39.048Z,-1.10
2019-01-19T05:40:10.352Z,-1.10
2019-01-19T05:42:40.830Z,-1.10
2019-01-19T05:45:11.934Z,-1.10
2019-01-19T05:47:40.568Z,-1.10
2019-01-19T05:50:12.597Z,-1.10
2019-01-19T05:52:41.121Z,-1.10
2019-01-19T05:55:09.751Z,-1.10
2019-01-19T05:57:38.268Z,-1.20
2019-01-19T06:00:25.181Z,-1.20
2019-01-19T06:02:53.649Z,-1.20
2019-01-19T06:05:22.165Z,-1.20
2019-01-19T06:07:50.731Z,-1.20
2019-01-19T06:10:19.244Z,-1.20
2019-01-19T06:12:47.735Z,-1.20
2019-01-19T06:15:16.454Z,-1.20
2019-01-19T06:17:44.929Z,-1.30
2019-01-19T06:20:17.270Z,-1.30
2019-01-19T06:22:46.133Z,-1.30
2019-01-19T06:25:15.738Z,-1.30
2019-01-19T06:27:44.387Z,-1.30
2019-01-19T06:30:18.507Z,-1.30
2019-01-19T06:32:47.061Z,-1.30
2019-01-19T06:35:15.525Z,-1.30
2019-01-19T06:37:44.061Z,-1.30
2019-01-19T06:40:15.150Z,-1.30
2019-01-19T06:42:43.763Z,-1.30
2019-01-19T06:45:17.447Z,-1.30
2019-01-19T06:47:45.907Z,-1.30
2019-01-19T06:50:16.545Z,-1.30
2019-01-19T06:52:44.994Z,-1.40
2019-01-19T06:55:18.953Z,-1.30
2019-01-19T06:57:47.401Z,-1.40
2019-01-19T07:00:18.389Z,-1.40
2019-01-19T07:02:46.877Z,-1.40
2019-01-19T07:05:15.965Z,-1.40
2019-01-19T07:07:44.540Z,-1.40
2019-01-19T07:10:16.035Z,-1.40
2019-01-19T07:12:44.626Z,-1.40
2019-01-19T07:15:16.527Z,-1.40
2019-01-19T07:17:45.970Z,-1.40
2019-01-19T07:20:20.988Z,-1.40
2019-01-19T07:22:49.565Z,-1.40
2019-01-19T07:25:20.095Z,-1.40
2019-01-19T07:27:48.675Z,-1.40
2019-01-19T07:30:19.068Z,-1.40
2019-01-19T07:32:50.980Z,-1.40
2019-01-19T07:35:19.892Z,-1.40
2019-01-19T07:37:52.177Z,-1.40
2019-01-19T07:40:20.848Z,-1.40
2019-01-19T07:45:39.586Z,-1.40
2019-01-19T07:48:09.194Z,-1.40
2019-01-19T07:50:38.440Z,-1.40
2019-01-19T07:53:07.292Z,-1.40
2019-01-19T07:55:39.148Z,-1.40
2019-01-19T07:58:09.357Z,-1.40
2019-01-19T08:00:42.277Z,-1.40
2019-01-19T08:03:11.341Z,-1.40
2019-01-19T08:05:40.172Z,-1.40
2019-01-19T08:08:10.999Z,-1.40
2019-01-19T08:10:41.641Z,-1.40
2019-01-19T08:13:11.192Z,-1.40
2019-01-19T08:15:41.392Z,-1.40
2019-01-19T08:18:13.953Z,-1.30
2019-01-19T08:20:45.336Z,-1.30
2019-01-19T08:23:16.442Z,-1.30
2019-01-19T08:25:47.560Z,-1.30
2019-01-19T08:28:16.620Z,-1.30
2019-01-19T08:30:48.603Z,-1.30
2019-01-19T08:33:19.908Z,-1.20
2019-01-19T08:35:50.917Z,-1.20
2019-01-19T08:38:19.666Z,-1.20
2019-01-19T08:40:48.373Z,-1.20
2019-01-19T08:43:18.530Z,-1.10
2019-01-19T08:45:47.569Z,-1.10
2019-01-19T08:48:16.201Z,-1.10
2019-01-19T08:50:45.013Z,-1.10
2019-01-19T08:53:14.037Z,-1.10
2019-01-19T08:55:43.963Z,-1.00
2019-01-19T08:58:12.490Z,-1.00
2019-01-19T09:00:41.191Z,-1.00
2019-01-19T09:03:09.738Z,-0.90
2019-01-19T09:05:38.724Z,-0.90
2019-01-19T09:08:07.221Z,-0.90
2019-01-19T09:10:35.690Z,-0.90
2019-01-19T09:13:04.313Z,-0.90
2019-01-19T09:15:33.731Z,-0.90
2019-01-19T09:18:02.168Z,-0.80
2019-01-19T09:20:30.887Z,-0.80
2019-01-19T09:23:07.399Z,-0.80
2019-01-19T09:25:37.743Z,-0.80
2019-01-19T09:28:06.421Z,-0.70
2019-01-19T09:30:35.015Z,-0.70
2019-01-19T09:33:03.612Z,-0.70
2019-01-19T09:35:32.216Z,-0.60
2019-01-19T09:38:03.601Z,-0.60
2019-01-19T09:40:32.624Z,-0.50
2019-01-19T09:43:01.471Z,-0.50
2019-01-19T09:45:29.998Z,-0.40
2019-01-19T09:47:58.648Z,-0.30
2019-01-19T09:50:27.322Z,-0.30
2019-01-19T09:52:55.815Z,-0.30
2019-01-19T09:55:24.321Z,-0.30
2019-01-19T09:57:52.945Z,-0.20
2019-01-19T10:00:24.751Z,-0.20
2019-01-19T10:02:53.765Z,-0.10
2019-01-19T10:05:26.865Z,0.00
2019-01-19T10:07:55.436Z,0.10
2019-01-19T10:10:23.888Z,0.10
2019-01-19T10:12:52.300Z,0.10
2019-01-19T10:15:22.318Z,0.10
2019-01-19T10:17:51.208Z,0.10
2019-01-19T10:20:25.784Z,0.10
2019-01-19T10:22:54.324Z,0.10
2019-01-19T10:25:22.929Z,0.10
2019-01-19T10:27:51.363Z,0.10
2019-01-19T10:30:27.643Z,0.20
2019-01-19T10:32:56.148Z,0.00
2019-01-19T10:35:24.649Z,-0.10
2019-01-19T10:37:56.606Z,-0.20
2019-01-19T10:40:23.905Z,-0.30
2019-01-19T10:42:52.398Z,-0.40
2019-01-19T10:45:23.665Z,-0.40
2019-01-19T10:47:52.108Z,-0.50
2019-01-19T10:50:20.692Z,-0.60
2019-01-19T10:52:51.751Z,-0.60
2019-01-19T10:55:24.069Z,-0.70
2019-01-19T10:57:52.528Z,-0.70
2019-01-19T11:00:26.296Z,-0.70
2019-01-19T11:02:58.293Z,-0.80
2019-01-19T11:05:31.647Z,-0.80
2019-01-19T11:08:03.769Z,-0.80
2019-01-19T11:10:33.894Z,-0.90
2019-01-19T11:13:03.462Z,-0.90
2019-01-19T11:15:34.954Z,-0.90
2019-01-19T11:18:04.874Z,-0.90
2019-01-19T11:20:33.916Z,-0.90
2019-01-19T11:23:02.792Z,-0.90
2019-01-19T11:25:31.724Z,-0.80
2019-01-19T11:28:00.274Z,-0.70
2019-01-19T11:30:31.236Z,-0.70
2019-01-19T11:32:59.885Z,-0.60
2019-01-19T11:35:29.886Z,-0.50
2019-01-19T11:37:58.551Z,-0.40
2019-01-19T11:40:30.064Z,-0.40
2019-01-19T11:42:58.485Z,-0.30
2019-01-19T11:45:26.916Z,-0.30
2019-01-19T11:47:55.466Z,-0.30
2019-01-19T11:50:23.963Z,-0.30
2019-01-19T11:52:52.384Z,-0.20
2019-01-19T11:55:22.521Z,-0.20
2019-01-19T11:57:53.653Z,-0.20
2019-01-19T12:00:33.143Z,-0.10
2019-01-19T12:03:01.578Z,-0.10
2019-01-19T12:05:30.002Z,0.00
2019-01-19T12:07:58.530Z,0.00
2019-01-19T12:10:28.882Z,0.00
2019-01-19T12:12:57.677Z,0.00
2019-01-19T12:15:26.510Z,0.00
2019-01-19T12:17:55.200Z,0.00
2019-01-19T12:20:40.734Z,0.00
2019-01-19T12:23:09.700Z,0.00
2019-01-19T12:25:38.244Z,0.10
2019-01-19T12:28:07.273Z,0.10
2019-01-19T12:30:36.155Z,0.10
2019-01-19T12:33:06.559Z,0.20
2019-01-19T12:35:35.471Z,0.20
2019-01-19T12:38:04.381Z,0.10
2019-01-19T12:40:32.908Z,0.10
2019-01-19T12:43:06.650Z,0.20
2019-01-19T12:45:40.998Z,0.20
2019-01-19T12:48:11.842Z,0.20
2019-01-19T12:50:41.175Z,0.30
2019-01-19T12:53:09.622Z,0.30
2019-01-19T12:55:38.518Z,0.30
2019-01-19T12:58:08.279Z,0.30
2019-01-19T13:00:37.064Z,0.40
2019-01-19T13:03:07.331Z,0.40
2019-01-19T13:05:41.551Z,0.40
2019-01-19T13:08:13.056Z,0.30
2019-01-19T13:10:47.441Z,0.40
2019-01-19T13:13:17.474Z,0.40
2019-01-19T13:15:49.592Z,0.30
2019-01-19T13:18:30.037Z,0.10
2019-01-19T13:21:16.282Z,0.00
2019-01-19T13:24:04.229Z,-0.10
2019-01-19T13:26:44.627Z,-0.20
2019-01-19T13:29:21.923Z,-0.30
2019-01-19T13:32:05.086Z,-0.40
2019-01-19T13:34:45.502Z,-0.40
2019-01-19T13:37:34.927Z,-0.40
2019-01-19T13:40:12.200Z,-0.40
2019-01-19T13:43:01.912Z,-0.40
2019-01-19T13:45:45.242Z,-0.50
2019-01-19T13:48:33.342Z,-0.50
2019-01-19T13:51:13.636Z,-0.50
2019-01-19T13:53:59.857Z,-0.40
2019-01-19T13:56:40.326Z,-0.40
2019-01-19T13:59:20.257Z,-0.30
2019-01-19T14:02:00.795Z,-0.20
2019-01-19T14:04:38.092Z,-0.10
2019-01-19T14:07:24.935Z,-0.10
2019-01-19T14:10:08.385Z,-0.10
2019-01-19T14:12:45.725Z,0.00
2019-01-19T14:15:26.133Z,0.00
2019-01-19T14:17:57.633Z,0.00
2019-01-19T14:20:38.035Z,0.00
2019-01-19T14:23:44.754Z,0.00
2019-01-19T14:26:22.300Z,0.10
2019-01-19T14:29:22.338Z,0.10
2019-01-19T14:31:53.845Z,0.10
2019-01-19T14:34:34.378Z,0.10
2019-01-19T14:37:14.438Z,-0.10
2019-01-19T14:40:04.000Z,-0.20
2019-01-19T14:42:35.491Z,-0.30
2019-01-19T14:45:23.120Z,-0.30
2019-01-19T14:48:15.453Z,-0.40
2019-01-19T14:50:49.994Z,-0.40
2019-01-19T14:53:42.735Z,-0.50
2019-01-19T14:56:34.113Z,-0.50
2019-01-19T14:59:14.491Z,-0.60
2019-01-19T15:02:13.260Z,-0.60
2019-01-19T15:04:53.622Z,-0.70
2019-01-19T15:07:45.937Z,-0.70
2019-01-19T15:10:20.080Z,-0.70
2019-01-19T15:13:20.077Z,-0.70
2019-01-19T15:16:16.956Z,-0.60
2019-01-19T15:18:57.153Z,-0.60
2019-01-19T15:21:31.324Z,-0.60
2019-01-19T15:24:11.986Z,-0.50
2019-01-19T15:26:59.804Z,-0.50
2019-01-19T15:29:36.973Z,-0.50
2019-01-19T15:32:17.339Z,-0.50
2019-01-19T15:34:57.826Z,-0.50
2019-01-19T15:37:29.486Z,-0.40
2019-01-19T15:40:03.804Z,-0.40
2019-01-19T15:42:41.430Z,-0.40
2019-01-19T15:45:31.077Z,-0.40
2019-01-19T15:48:02.693Z,-0.50
2019-01-19T15:50:53.684Z,-0.50
2019-01-19T15:53:43.099Z,-0.50
2019-01-19T15:56:24.120Z,-0.50
2019-01-19T15:59:10.564Z,-0.50
2019-01-19T16:01:45.025Z,-0.50
2019-01-19T16:04:34.816Z,-0.50
2019-01-19T16:07:08.745Z,-0.50
2019-01-19T16:09:43.457Z,-0.50
2019-01-19T16:12:15.135Z,-0.60
2019-01-19T16:14:49.974Z,-0.60
2019-01-19T16:17:24.223Z,-0.60
2019-01-19T16:20:10.663Z,-0.60
2019-01-19T16:22:57.107Z,-0.60
2019-01-19T16:25:48.100Z,-0.60
2019-01-19T16:28:36.074Z,-0.60
2019-01-19T16:31:16.342Z,-0.70
2019-01-19T16:33:53.615Z,-0.80
2019-01-19T16:36:44.404Z,-0.90
2019-01-19T16:39:25.638Z,-0.90
2019-01-19T16:42:03.531Z,-1.00
2019-01-19T16:44:35.029Z,-1.00
2019-01-19T16:47:18.280Z,-1.10
2019-01-19T16:49:55.781Z,-1.10
2019-01-19T16:52:29.802Z,-1.20
2019-01-19T16:55:16.218Z,-1.20
2019-01-19T16:58:00.055Z,-1.20
2019-01-19T17:00:37.360Z,-1.10
2019-01-19T17:03:31.178Z,-1.10
2019-01-19T17:06:17.344Z,-1.10
2019-01-19T17:09:05.148Z,-1.10
2019-01-19T17:11:54.437Z,-1.20
2019-01-19T17:14:51.404Z,-1.20
2019-01-19T17:17:40.904Z,-1.20
2019-01-19T17:20:15.113Z,-1.20
2019-01-19T17:22:46.717Z,-1.20
2019-01-19T17:25:26.733Z,-1.20
2019-01-19T17:28:07.117Z,-1.20
2019-01-19T17:30:59.432Z,-1.20
2019-01-19T17:33:30.941Z,-1.20
2019-01-19T17:36:18.693Z,-1.30
2019-01-19T17:38:59.088Z,-1.30
2019-01-19T17:41:39.341Z,-1.30
2019-01-19T17:44:28.864Z,-1.20
2019-01-19T17:47:15.265Z,-1.30
2019-01-19T17:49:55.711Z,-1.30
2019-01-19T17:52:29.718Z,-1.30
2019-01-19T17:55:34.156Z,-1.30
2019-01-19T17:58:21.818Z,-1.30
2019-01-19T18:01:09.788Z,-1.30
2019-01-19T18:03:47.109Z,-1.40
2019-01-19T18:06:39.569Z,-1.40
2019-01-19T18:09:16.521Z,-1.40
2019-01-19T18:11:50.790Z,-1.40
2019-01-19T18:14:22.404Z,-1.40
2019-01-19T18:17:16.392Z,-1.40
2019-01-19T18:19:53.812Z,-1.40
2019-01-19T18:22:34.177Z,-1.40
2019-01-19T18:25:11.785Z,-1.40
2019-01-19T18:27:54.893Z,-1.40
2019-01-19T18:30:41.268Z,-1.50
2019-01-19T18:33:32.107Z,-1.50
2019-01-19T18:36:15.184Z,-1.50
2019-01-19T18:38:49.600Z,-1.50
2019-01-19T18:41:35.964Z,-1.50
2019-01-19T18:44:25.114Z,-1.50
2019-01-19T18:47:17.514Z,-1.50
2019-01-19T18:50:11.316Z,-1.50
2019-01-19T18:52:45.746Z,-1.50
2019-01-19T18:55:20.277Z,-1.50
2019-01-19T18:58:07.993Z,-1.50
2019-01-19T19:00:48.274Z,-1.60
2019-01-19T19:03:28.412Z,-1.60
2019-01-19T19:06:18.980Z,-1.60
2019-01-19T19:09:10.028Z,-1.60
2019-01-19T19:11:59.590Z,-1.60
2019-01-19T19:14:33.775Z,-1.60
2019-01-19T19:17:11.243Z,-1.60
2019-01-19T19:19:45.556Z,-1.60
2019-01-19T19:22:29.996Z,-1.60
2019-01-19T19:25:17.955Z,-1.70
2019-01-19T19:28:11.915Z,-1.70
2019-01-19T19:31:12.760Z,-1.70
2019-01-19T19:33:44.284Z,-1.70
2019-01-19T19:36:24.500Z,-1.70
2019-01-19T19:39:21.311Z,-1.70
2019-01-19T19:42:15.596Z,-1.80
2019-01-19T19:44:59.101Z,-1.80
2019-01-19T19:47:33.511Z,-1.80
2019-01-19T19:50:17.167Z,-1.80
2019-01-19T19:52:45.872Z,-1.80
2019-01-19T19:55:13.233Z,-1.80
2019-01-19T19:57:41.643Z,-1.80
2019-01-19T20:00:11.429Z,-1.80
2019-01-19T20:02:39.885Z,-1.90
2019-01-19T20:05:09.960Z,-1.90
2019-01-19T20:07:38.476Z,-1.90
2019-01-19T20:10:16.793Z,-1.90
2019-01-19T20:12:40.497Z,-1.90
2019-01-19T20:15:10.058Z,-1.90
2019-01-19T20:17:38.505Z,-2.00
2019-01-19T20:20:09.470Z,-2.00
2019-01-19T20:22:37.905Z,-2.00
2019-01-19T20:25:09.176Z,-2.00
2019-01-19T20:27:37.605Z,-2.00
2019-01-19T20:30:09.111Z,-2.00
2019-01-19T20:32:37.543Z,-2.00
2019-01-19T20:35:07.404Z,-2.00
2019-01-19T20:37:35.839Z,-2.10
2019-01-19T20:40:07.604Z,-2.10
2019-01-19T20:42:36.048Z,-2.10
2019-01-19T20:45:07.485Z,-2.10
2019-01-19T20:47:35.924Z,-2.10
2019-01-19T20:50:07.508Z,-2.10
2019-01-19T20:52:35.933Z,-2.10
2019-01-19T20:55:06.209Z,-2.10
2019-01-19T20:57:34.691Z,-2.10
2019-01-19T21:00:06.594Z,-2.10
2019-01-19T21:02:35.063Z,-2.10
2019-01-19T21:05:04.465Z,-2.20
2019-01-19T21:07:32.908Z,-2.20
2019-01-19T21:10:01.339Z,-2.20
2019-01-19T21:12:29.767Z,-2.20
2019-01-19T21:14:58.180Z,-2.20
2019-01-19T21:17:26.627Z,-2.20
2019-01-19T21:19:55.038Z,-2.20
2019-01-19T21:22:23.483Z,-2.20
2019-01-19T21:24:51.898Z,-2.20
2019-01-19T21:27:20.320Z,-2.20
2019-01-19T21:29:48.771Z,-2.20
2019-01-19T21:32:17.680Z,-2.20
2019-01-19T21:34:46.119Z,-2.20
2019-01-19T21:37:14.532Z,-2.20
2019-01-19T21:39:42.980Z,-2.30
2019-01-19T21:42:11.411Z,-2.30
2019-01-19T21:44:39.867Z,-2.30
2019-01-19T21:47:08.294Z,-2.30
2019-01-19T21:49:36.740Z,-2.30
2019-01-19T21:52:05.390Z,-2.40
2019-01-19T21:54:33.817Z,-2.50
2019-01-19T21:57:02.258Z,-2.50
2019-01-19T21:59:30.683Z,-2.50
2019-01-19T22:01:59.098Z,-2.50
2019-01-19T22:04:27.535Z,-2.50
2019-01-19T22:06:55.983Z,-2.40
2019-01-19T22:09:24.408Z,-2.40
2019-01-19T22:11:53.224Z,-2.30
2019-01-19T22:14:21.656Z,-2.30
2019-01-19T22:16:50.442Z,-2.20
2019-01-19T22:19:19.064Z,-2.10
2019-01-19T22:21:47.511Z,-2.10
2019-01-19T22:24:15.996Z,-2.00
2019-01-19T22:26:46.513Z,-2.00
2019-01-19T22:29:14.932Z,-1.90
2019-01-19T22:31:43.372Z,-1.90
2019-01-19T22:34:11.811Z,-1.80
2019-01-19T22:36:40.237Z,-1.80
2019-01-19T22:39:08.682Z,-1.70
2019-01-19T22:41:37.118Z,-1.70
2019-01-19T22:44:05.638Z,-1.70
2019-01-19T22:46:34.119Z,-1.60
2019-01-19T22:49:02.600Z,-1.60
2019-01-19T22:51:31.158Z,-1.50
2019-01-19T22:53:59.589Z,-1.60
2019-01-19T22:56:28.036Z,-1.50
2019-01-19T22:58:56.457Z,-1.50
2019-01-19T23:01:27.965Z,-1.40
2019-01-19T23:03:56.417Z,-1.40
2019-01-19T23:06:24.830Z,-1.40
2019-01-19T23:08:53.268Z,-1.40
2019-01-19T23:11:21.762Z,-1.40
2019-01-19T23:13:50.208Z,-1.40
2019-01-19T23:16:18.689Z,-1.40
2019-01-19T23:18:47.108Z,-1.30
2019-01-19T23:21:15.618Z,-1.30
2019-01-19T23:23:44.033Z,-1.40
2019-01-19T23:26:12.824Z,-1.30
2019-01-19T23:28:41.248Z,-1.30
2019-01-19T23:31:09.713Z,-1.30
2019-01-19T23:33:38.130Z,-1.30
2019-01-19T23:36:06.550Z,-1.30
2019-01-19T23:38:34.988Z,-1.30
2019-01-19T23:41:08.841Z,-1.30
2019-01-19T23:43:33.574Z,-1.40
2019-01-19T23:46:01.996Z,-1.50
2019-01-19T23:48:30.528Z,-1.60
2019-01-19T23:50:58.933Z,-1.70
2019-01-19T23:53:27.376Z,-1.70
2019-01-19T23:55:55.784Z,-1.80
2019-01-19T23:58:24.228Z,-1.80
